Time;durP1;ratioP1;P1;durP2;ratioP2;P2;SDS_P1;SDS_P2;PMS_P1;PMS_P2;Temp;Humidity;BMP_temperature;BMP_pressure;BME280_temperature;BME280_humidity;BME280_pressure;Samples;Min_cycle;Max_cycle;Signal;HPM_P1;HPM_P2
2022/07/11 00:00:09;;;;;;;9.57;1.40;;;487.30;1433.60;;;;;;5092234;28;20024;-77
2022/07/11 00:02:36;;;;;;;6.50;1.05;;;487.30;1433.60;;;;;;5091722;28;20028;-77
2022/07/11 00:05:02;;;;;;;2.55;0.90;;;487.20;1433.60;;;;;;5091218;28;20389;-77
2022/07/11 00:07:28;;;;;;;4.53;0.90;;;512.00;1433.60;;;;;;5093054;28;20019;-77
2022/07/11 00:09:54;;;;;;;2.55;0.98;;;487.20;1433.60;;;;;;5093588;28;20024;-76
2022/07/11 00:12:21;;;;;;;4.30;1.30;;;487.20;1433.60;;;;;;5092365;28;20130;-77
2022/07/11 00:14:48;;;;;;;0.98;0.68;;;487.10;1433.60;;;;;;5092120;28;20017;-77
2022/07/11 00:17:13;;;;;;;2.80;1.02;;;487.30;1459.20;;;;;;5092318;28;20111;-77
2022/07/11 00:19:39;;;;;;;3.20;1.30;;;487.10;1459.20;;;;;;5090619;28;20111;-77
2022/07/11 00:22:06;;;;;;;4.50;1.08;;;487.00;1459.20;;;;;;5093484;28;20020;-77
2022/07/11 00:24:32;;;;;;;2.38;0.70;;;486.90;1484.80;;;;;;5091749;28;20023;-77
2022/07/11 00:26:58;;;;;;;1.70;0.70;;;486.90;1484.80;;;;;;5093297;28;20024;-76
2022/07/11 00:29:24;;;;;;;3.45;1.10;;;487.00;1484.80;;;;;;5091073;28;20058;-76
2022/07/11 00:31:50;;;;;;;3.90;0.93;;;486.90;1484.80;;;;;;5091984;28;20410;-76
2022/07/11 00:34:17;;;;;;;4.22;0.90;;;486.90;1484.80;;;;;;5093122;28;20027;-75
2022/07/11 00:36:43;;;;;;;1.98;1.00;;;486.80;1484.80;;;;;;5093099;28;20023;-76
2022/07/11 00:39:09;;;;;;;1.80;0.80;;;486.70;1484.80;;;;;;5093116;28;20472;-77
2022/07/11 00:41:35;;;;;;;5.05;1.33;;;486.80;1484.80;;;;;;5092862;28;20020;-77
2022/07/11 00:44:01;;;;;;;2.83;1.10;;;486.80;1484.80;;;;;;5091298;28;20047;-76
2022/07/11 00:46:29;;;;;;;1.83;0.85;;;486.70;1510.40;;;;;;5092792;28;20355;-77
2022/07/11 00:48:55;;;;;;;16.02;1.13;;;486.70;1510.40;;;;;;5091701;28;20103;-76
2022/07/11 00:51:22;;;;;;;1.00;0.90;;;486.60;1510.40;;;;;;5091364;28;20039;-77
2022/07/11 00:53:51;;;;;;;1.75;0.80;;;486.70;1510.40;;;;;;5092465;28;20016;-77
2022/07/11 00:56:19;;;;;;;2.75;0.95;;;486.60;1536.00;;;;;;5091388;28;20139;-77
2022/07/11 00:58:47;;;;;;;1.75;0.90;;;486.60;1536.00;;;;;;5086639;28;20099;-76
2022/07/11 01:01:13;;;;;;;2.20;0.90;;;486.70;1536.00;;;;;;5091070;28;20028;-77
2022/07/11 01:03:41;;;;;;;3.80;0.90;;;486.70;1536.00;;;;;;5092420;28;20047;-76
2022/07/11 01:06:08;;;;;;;1.08;0.80;;;486.70;1536.00;;;;;;5091013;28;20039;-76
2022/07/11 01:08:35;;;;;;;5.53;1.00;;;486.60;1536.00;;;;;;5092001;28;20030;-76
2022/07/11 01:11:09;;;;;;;1.60;0.90;;;486.40;1536.00;;;;;;5091217;28;20516;-76
2022/07/11 01:13:34;;;;;;;1.33;0.75;;;486.40;1561.60;;;;;;5090978;28;20032;-76
2022/07/11 01:16:12;;;;;;;4.57;1.00;;;486.40;1561.60;;;;;;5091049;28;20035;-77
2022/07/11 01:18:39;;;;;;;1.52;0.90;;;461.60;1587.20;;;;;;5090545;28;20024;-76
2022/07/11 01:21:18;;;;;;;1.80;1.20;;;486.40;1561.60;;;;;;5088400;28;20029;-75
2022/07/11 01:23:45;;;;;;;1.67;0.77;;;461.70;1561.60;;;;;;5088154;28;20062;-76
2022/07/11 01:26:11;;;;;;;3.08;1.00;;;486.40;1561.60;;;;;;5091949;28;20044;-76
2022/07/11 01:28:37;;;;;;;5.35;1.15;;;461.70;1587.20;;;;;;5090463;28;20040;-77
2022/07/11 01:31:03;;;;;;;2.75;0.80;;;461.70;1587.20;;;;;;5090867;28;20075;-78
2022/07/11 01:33:32;;;;;;;1.92;0.82;;;461.60;1587.20;;;;;;5092138;28;20887;-76
2022/07/11 01:36:02;;;;;;;1.83;1.15;;;461.60;1587.20;;;;;;5090837;28;20020;-77
2022/07/11 01:38:28;;;;;;;4.25;1.05;;;461.70;1587.20;;;;;;5089612;28;20489;-77
2022/07/11 01:40:55;;;;;;;1.85;0.98;;;461.70;1587.20;;;;;;5090683;28;20051;-76
2022/07/11 01:43:21;;;;;;;1.88;0.98;;;461.50;1612.80;;;;;;5090671;28;20020;-77
2022/07/11 01:45:51;;;;;;;3.53;0.90;;;461.50;1612.80;;;;;;5092273;28;20046;-77
2022/07/11 01:48:17;;;;;;;5.20;1.20;;;461.50;1612.80;;;;;;5090978;28;20028;-77
2022/07/11 01:50:43;;;;;;;2.30;1.00;;;461.50;1612.80;;;;;;5090466;28;20122;-77
2022/07/11 01:53:09;;;;;;;2.55;1.20;;;461.50;1612.80;;;;;;5090657;28;20031;-77
2022/07/11 01:55:35;;;;;;;2.50;1.05;;;461.60;1612.80;;;;;;5091216;28;20035;-77
2022/07/11 01:58:01;;;;;;;3.35;1.00;;;461.70;1612.80;;;;;;5073033;28;20074;-77
2022/07/11 02:00:27;;;;;;;3.63;1.20;;;461.30;1638.40;;;;;;5073099;28;20028;-76
2022/07/11 02:02:53;;;;;;;3.38;1.40;;;461.50;1638.40;;;;;;5091903;28;20016;-76
2022/07/11 02:05:18;;;;;;;1.90;1.10;;;461.50;1638.40;;;;;;5073767;28;20024;-77
2022/07/11 02:10:29;;;;;;;1.33;0.82;;;461.40;1664.00;;;;;;5089487;28;20035;-77
2022/07/11 02:12:59;;;;;;;4.07;1.23;;;461.40;1664.00;;;;;;5072852;28;20036;-77
2022/07/11 02:15:27;;;;;;;7.28;1.42;;;461.20;1664.00;;;;;;5073488;28;20016;-77
2022/07/11 02:17:52;;;;;;;1.08;0.80;;;461.30;1664.00;;;;;;5091468;28;20081;-77
2022/07/11 02:20:20;;;;;;;1.88;1.08;;;461.30;1664.00;;;;;;5073728;28;20417;-76
2022/07/11 02:22:46;;;;;;;1.73;0.80;;;461.20;1689.60;;;;;;5070091;28;20024;-76
2022/07/11 02:25:12;;;;;;;3.38;1.00;;;461.20;1689.60;;;;;;5072788;28;20043;-77
2022/07/11 02:27:38;;;;;;;1.90;0.95;;;461.20;1689.60;;;;;;5073334;28;20021;-77
2022/07/11 02:30:04;;;;;;;1.70;0.90;;;461.10;1715.20;;;;;;5073848;28;20111;-77
2022/07/11 02:32:30;;;;;;;2.15;0.95;;;461.10;1715.20;;;;;;5076647;28;20048;-77
2022/07/11 02:34:56;;;;;;;4.95;1.00;;;461.10;1715.20;;;;;;5076491;28;20020;-77
2022/07/11 02:37:22;;;;;;;3.05;1.10;;;461.10;1715.20;;;;;;5095566;28;20497;-77
2022/07/11 02:39:47;;;;;;;7.47;1.40;;;461.10;1715.20;;;;;;5076867;28;20027;-77
2022/07/11 02:42:13;;;;;;;1.92;1.05;;;461.10;1715.20;;;;;;5095441;28;20035;-77
2022/07/11 02:44:39;;;;;;;2.33;1.10;;;460.90;1740.80;;;;;;5077212;28;20485;-77
2022/07/11 02:47:05;;;;;;;2.08;1.00;;;460.90;1740.80;;;;;;5077181;28;20107;-77
2022/07/11 02:49:32;;;;;;;3.75;1.20;;;461.00;1740.80;;;;;;5077064;28;20040;-77
2022/07/11 02:51:58;;;;;;;2.08;1.23;;;460.90;1740.80;;;;;;5077067;28;20035;-77
2022/07/11 02:54:24;;;;;;;5.60;1.45;;;460.90;1740.80;;;;;;5094764;28;20028;-77
2022/07/11 02:56:50;;;;;;;3.47;1.05;;;460.90;1740.80;;;;;;5086209;28;20046;-77
2022/07/11 02:59:15;;;;;;;2.75;1.20;;;460.80;1740.80;;;;;;5096806;28;20043;-77
2022/07/11 03:01:41;;;;;;;2.53;1.20;;;460.80;1766.40;;;;;;5115375;28;20020;-76
2022/07/11 03:04:10;;;;;;;5.20;1.45;;;460.80;1766.40;;;;;;5097047;28;20110;-77
2022/07/11 03:06:38;;;;;;;2.10;1.08;;;460.80;1766.40;;;;;;5096872;28;20023;-78
2022/07/11 03:09:05;;;;;;;2.30;1.10;;;436.10;1740.80;;;;;;5096903;28;20109;-77
2022/07/11 03:11:31;;;;;;;4.25;1.60;;;436.10;1766.40;;;;;;5094343;28;20107;-76
2022/07/11 03:13:57;;;;;;;2.00;1.20;;;436.10;1766.40;;;;;;5096986;28;20092;-76
2022/07/11 03:16:23;;;;;;;2.70;1.10;;;436.10;1766.40;;;;;;5096896;28;20023;-76
2022/07/11 03:18:50;;;;;;;4.30;1.55;;;435.80;1792.00;;;;;;5115298;28;20531;-76
2022/07/11 03:21:15;;;;;;;2.03;1.38;;;435.90;1792.00;;;;;;5096876;28;20028;-76
2022/07/11 03:23:41;;;;;;;2.70;0.93;;;435.90;1817.60;;;;;;5096489;28;20106;-77
2022/07/11 03:26:07;;;;;;;1.98;1.30;;;435.90;1817.60;;;;;;5096590;28;20077;-77
2022/07/11 03:28:33;;;;;;;3.17;1.63;;;435.90;1817.60;;;;;;5114795;28;20512;-76
2022/07/11 03:30:58;;;;;;;3.15;1.17;;;435.60;1843.20;;;;;;5114851;28;20024;-76
2022/07/11 03:33:24;;;;;;;5.43;1.45;;;435.80;1843.20;;;;;;5096686;28;20027;-76
2022/07/11 03:35:50;;;;;;;5.38;1.65;;;435.80;1843.20;;;;;;5096556;28;20556;-76
2022/07/11 03:38:19;;;;;;;2.80;1.50;;;435.80;1843.20;;;;;;5096336;28;20027;-77
2022/07/11 03:40:44;;;;;;;3.17;1.48;;;435.80;1843.20;;;;;;5096465;28;20240;-77
2022/07/11 03:43:10;;;;;;;7.07;1.20;;;435.90;1843.20;;;;;;5095299;28;20016;-77
2022/07/11 03:45:36;;;;;;;8.27;1.55;;;435.80;1843.20;;;;;;5096527;28;20027;-77
2022/07/11 03:48:03;;;;;;;2.47;1.25;;;435.80;1843.20;;;;;;5096523;28;20019;-77
2022/07/11 03:50:29;;;;;;;3.10;1.38;;;435.60;1894.40;;;;;;5114308;28;20019;-77
2022/07/11 03:52:58;;;;;;;2.80;1.33;;;435.70;1868.80;;;;;;5096325;28;20501;-77
2022/07/11 03:55:24;;;;;;;1.33;1.00;;;435.80;1868.80;;;;;;5095900;28;20039;-77
2022/07/11 03:57:50;;;;;;;5.05;1.50;;;435.80;1868.80;;;;;;5114569;28;20023;-77
2022/07/11 04:00:16;;;;;;;3.08;1.35;;;435.70;1868.80;;;;;;5095929;28;20019;-77
2022/07/11 04:02:42;;;;;;;2.90;1.50;;;435.90;1868.80;;;;;;5096083;28;20020;-77
2022/07/11 04:05:08;;;;;;;4.80;1.50;;;435.90;2201.60;;;;;;5095872;28;20420;-76
2022/07/11 04:07:34;;;;;;;3.33;1.55;;;435.60;1894.40;;;;;;5095922;28;20466;-77
2022/07/11 04:10:00;;;;;;;11.48;2.00;;;435.50;1920.00;;;;;;5095374;28;20022;-81
2022/07/11 04:12:26;;;;;;;2.83;1.33;;;435.80;1920.00;;;;;;5113858;28;20023;-77
2022/07/11 04:14:51;;;;;;;2.47;1.20;;;435.70;1920.00;;;;;;5095863;28;20015;-77
2022/07/11 04:17:17;;;;;;;2.00;1.00;;;435.70;1920.00;;;;;;5095861;28;20031;-82
2022/07/11 04:19:43;;;;;;;3.80;1.63;;;435.90;1920.00;;;;;;5114500;28;20041;-78
2022/07/11 04:22:09;;;;;;;6.90;1.88;;;435.90;1945.60;;;;;;5095773;28;20028;-79
2022/07/11 04:24:35;;;;;;;2.72;1.30;;;435.80;1920.00;;;;;;5095481;28;20111;-79
2022/07/11 04:27:01;;;;;;;3.08;1.67;;;435.80;1971.20;;;;;;5095817;28;20114;-78
2022/07/11 04:29:26;;;;;;;5.88;1.77;;;436.00;1945.60;;;;;;5095918;28;20106;-79
2022/07/11 04:31:52;;;;;;;2.60;0.95;;;435.90;1945.60;;;;;;5095594;28;20043;-79
2022/07/11 04:34:18;;;;;;;4.35;1.42;;;435.70;1971.20;;;;;;5096340;28;20418;-79
2022/07/11 04:36:45;;;;;;;4.85;1.30;;;435.90;1945.60;;;;;;5095634;28;20122;-79
2022/07/11 04:39:11;;;;;;;4.90;2.05;;;435.80;1945.60;;;;;;5095710;28;20024;-78
2022/07/11 04:41:37;;;;;;;1.90;1.25;;;436.10;1945.60;;;;;;5095574;28;20449;-77
2022/07/11 04:44:03;;;;;;;4.38;1.65;;;435.90;1971.20;;;;;;5087420;28;20070;-82
2022/07/11 04:46:29;;;;;;;2.45;1.30;;;436.10;1971.20;;;;;;5091165;27;20034;-80
2022/07/11 04:48:55;;;;;;;4.93;1.48;;;436.00;1945.60;;;;;;5127479;27;20015;-78
2022/07/11 04:51:23;;;;;;;3.10;1.30;;;;;;;;;;5083109;28;20619;-79
2022/07/11 04:53:49;;;;;;;4.95;1.35;;;436.10;1996.80;;;;;;5074200;28;20016;-80
2022/07/11 04:56:15;;;;;;;4.97;1.27;;;435.80;1996.80;;;;;;5104567;28;20048;-78
2022/07/11 04:58:41;;;;;;;5.25;1.70;;;436.10;1971.20;;;;;;5095396;28;20024;-78
2022/07/11 05:01:07;;;;;;;3.00;1.40;;;436.10;1996.80;;;;;;5095630;28;20478;-78
2022/07/11 05:03:32;;;;;;;9.80;1.60;;;436.10;1971.20;;;;;;5113908;28;20362;-80
2022/07/11 05:05:58;;;;;;;2.97;1.02;;;460.90;1971.20;;;;;;5081995;28;20025;-78
2022/07/11 05:08:24;;;;;;;4.80;1.40;;;461.00;1971.20;;;;;;5080536;28;20431;-79
2022/07/11 05:10:50;;;;;;;5.72;1.50;;;461.00;1971.20;;;;;;5103473;28;20435;-79
2022/07/11 05:13:15;;;;;;;3.00;1.45;;;461.20;1945.60;;;;;;5080917;28;20106;-78
2022/07/11 05:15:42;;;;;;;6.00;1.25;;;461.00;1971.20;;;;;;5085542;28;20095;-79
2022/07/11 05:18:08;;;;;;;3.75;1.55;;;460.90;1996.80;;;;;;5076561;28;20560;-78
2022/07/11 05:20:33;;;;;;;3.72;1.55;;;460.90;1996.80;;;;;;5112060;28;20119;-79
2022/07/11 05:22:59;;;;;;;4.47;1.55;;;461.00;1996.80;;;;;;5112197;28;20035;-80
2022/07/11 05:25:25;;;;;;;2.83;1.63;;;461.20;1971.20;;;;;;5113238;28;20032;-79
2022/07/11 05:27:51;;;;;;;5.97;1.40;;;461.40;1945.60;;;;;;5095398;28;20031;-79
2022/07/11 05:30:17;;;;;;;5.43;1.80;;;461.70;1920.00;;;;;;5091423;28;20477;-79
2022/07/11 05:32:43;;;;;;;5.43;1.60;;;461.70;1920.00;;;;;;5084244;28;20043;-80
2022/07/11 05:35:09;;;;;;;3.28;1.75;;;461.70;1920.00;;;;;;5099523;28;20495;-80
2022/07/11 05:37:35;;;;;;;4.45;1.50;;;486.40;1894.40;;;;;;5087246;28;20492;-76
2022/07/11 05:40:01;;;;;;;7.32;1.70;;;461.70;1894.40;;;;;;5088915;28;20473;-79
2022/07/11 05:42:28;;;;;;;5.38;1.67;;;461.70;1894.40;;;;;;5094598;28;20031;-78
2022/07/11 05:44:54;;;;;;;4.25;1.60;;;486.40;1920.00;;;;;;5097133;28;20055;-78
2022/07/11 05:47:20;;;;;;;2.85;1.30;;;461.70;1894.40;;;;;;5112340;28;20058;-79
2022/07/11 05:49:46;;;;;;;4.30;1.73;;;461.60;1894.40;;;;;;5094015;28;20016;-78
2022/07/11 05:52:12;;;;;;;4.53;1.60;;;461.60;1920.00;;;;;;5093361;28;20039;-79
2022/07/11 05:54:37;;;;;;;9.70;3.13;;;461.70;1920.00;;;;;;5094202;28;20485;-78
2022/07/11 05:57:03;;;;;;;7.25;1.98;;;486.40;1920.00;;;;;;5093751;28;20063;-78
2022/07/11 05:59:29;;;;;;;3.92;1.52;;;486.50;1920.00;;;;;;5094227;28;20034;-78
2022/07/11 06:01:56;;;;;;;3.97;1.70;;;486.50;1920.00;;;;;;5108545;28;20451;-78
2022/07/11 06:04:22;;;;;;;4.82;1.50;;;486.60;1920.00;;;;;;5081336;28;20023;-79
2022/07/11 06:06:47;;;;;;;6.30;1.70;;;486.60;1894.40;;;;;;5110639;28;20465;-79
2022/07/11 06:09:14;;;;;;;2.45;1.50;;;;;;;;;;5094377;28;20542;-79
2022/07/11 06:11:40;;;;;;;2.63;1.35;;;486.80;1920.00;;;;;;5094448;28;20092;-78
2022/07/11 06:14:06;;;;;;;5.75;1.60;;;487.10;1894.40;;;;;;5094436;28;20106;-78
2022/07/11 06:16:32;;;;;;;5.85;1.50;;;487.10;1894.40;;;;;;5081020;28;20093;-79
2022/07/11 06:18:58;;;;;;;4.18;1.63;;;487.10;1920.00;;;;;;5107621;28;20465;-76
2022/07/11 06:21:27;;;;;;;6.22;1.88;;;487.20;1868.80;;;;;;5099768;28;20153;-78
2022/07/11 06:23:54;;;;;;;4.30;2.15;;;487.30;1894.40;;;;;;5093360;28;20024;-78
2022/07/11 06:26:20;;;;;;;7.53;1.58;;;487.30;1894.40;;;;;;5093814;28;20062;-78
2022/07/11 06:28:46;;;;;;;4.13;1.75;;;512.00;1894.40;;;;;;5094068;28;20019;-78
2022/07/11 06:31:12;;;;;;;3.75;1.58;;;512.00;1868.80;;;;;;5112050;28;20031;-78
2022/07/11 06:33:38;;;;;;;6.65;1.90;;;512.20;1868.80;;;;;;5112271;28;20028;-78
2022/07/11 06:36:05;;;;;;;2.78;1.65;;;512.10;1843.20;;;;;;5093981;28;20492;-79
2022/07/11 06:38:31;;;;;;;4.40;2.03;;;512.00;1868.80;;;;;;5112540;28;20019;-79
2022/07/11 06:40:57;;;;;;;8.23;2.25;;;512.40;1868.80;;;;;;5093716;28;21536;-78
2022/07/11 06:43:23;;;;;;;2.47;1.58;;;512.60;1843.20;;;;;;5090730;28;20036;-79
2022/07/11 06:45:48;;;;;;;4.35;1.55;;;512.50;1817.60;;;;;;5112010;28;20512;-78
2022/07/11 06:48:14;;;;;;;3.40;1.67;;;512.60;1817.60;;;;;;5112139;28;20020;-79
2022/07/11 06:50:40;;;;;;;3.00;1.42;;;512.70;1766.40;;;;;;5093398;28;20019;-78
2022/07/11 06:53:06;;;;;;;2.88;1.40;;;512.80;1766.40;;;;;;5093574;28;20028;-80
2022/07/11 06:55:33;;;;;;;6.68;1.48;;;537.60;1792.00;;;;;;5073503;28;20501;-78
2022/07/11 06:57:59;;;;;;;5.60;1.83;;;537.80;1792.00;;;;;;5105708;28;20027;-78
2022/07/11 07:00:27;;;;;;;5.18;1.67;;;537.80;1766.40;;;;;;5094174;28;20020;-78
2022/07/11 07:02:56;;;;;;;8.27;2.00;;;537.90;1766.40;;;;;;5077230;28;20028;-79
2022/07/11 07:05:24;;;;;;;4.80;1.63;;;538.10;1740.80;;;;;;5100689;28;20160;-79
2022/07/11 07:07:51;;;;;;;5.25;1.50;;;538.20;1715.20;;;;;;5079236;28;20031;-79
2022/07/11 07:10:17;;;;;;;4.88;1.58;;;538.20;1689.60;;;;;;5119248;28;20095;-79
2022/07/11 07:12:44;;;;;;;4.32;1.67;;;538.20;1689.60;;;;;;5100368;28;20119;-79
2022/07/11 07:15:10;;;;;;;7.65;1.42;;;538.40;1689.60;;;;;;5111935;28;20026;-79
2022/07/11 07:17:37;;;;;;;6.30;1.52;;;538.50;1664.00;;;;;;5094804;28;20031;-79
2022/07/11 07:20:04;;;;;;;4.57;1.55;;;538.50;1664.00;;;;;;5096879;28;20090;-77
2022/07/11 07:22:30;;;;;;;3.40;1.33;;;538.50;1664.00;;;;;;5096889;28;20065;-78
2022/07/11 07:24:57;;;;;;;5.63;1.60;;;538.50;1638.40;;;;;;5096864;28;20028;-79
2022/07/11 07:27:23;;;;;;;7.93;2.08;;;563.40;1664.00;;;;;;5115193;28;20031;-79
2022/07/11 07:29:49;;;;;;;5.15;1.60;;;563.60;1638.40;;;;;;5114084;28;20027;-79
2022/07/11 07:32:15;;;;;;;4.32;1.33;;;563.60;1638.40;;;;;;5114848;28;20492;-79
2022/07/11 07:34:40;;;;;;;2.95;1.30;;;563.60;1638.40;;;;;;5096915;28;20404;-82
2022/07/11 07:37:06;;;;;;;4.47;1.40;;;563.70;1612.80;;;;;;5097172;28;20504;-79
2022/07/11 07:39:32;;;;;;;5.40;1.73;;;563.70;1612.80;;;;;;5097020;28;20110;-79
2022/07/11 07:41:58;;;;;;;5.60;1.48;;;564.00;1612.80;;;;;;5096543;28;20103;-84
2022/07/11 07:44:24;;;;;;;2.78;1.23;;;564.00;1561.60;;;;;;5096956;28;20458;-79
2022/07/11 07:46:49;;;;;;;4.75;1.40;;;564.00;1561.60;;;;;;5097116;28;20115;-83
2022/07/11 07:49:16;;;;;;;8.02;1.75;;;564.00;1561.60;;;;;;5097153;28;20051;-78
2022/07/11 07:51:42;;;;;;;6.00;1.77;;;588.80;1561.60;;;;;;5096822;28;20393;-81
2022/07/11 07:54:07;;;;;;;3.92;1.30;;;588.90;1561.60;;;;;;5097866;27;20088;-80
2022/07/11 07:56:33;;;;;;;4.20;1.50;;;589.10;1536.00;;;;;;5097155;28;20520;-80
2022/07/11 07:58:59;;;;;;;7.72;1.50;;;589.20;1510.40;;;;;;5097284;28;20057;-78
2022/07/11 08:01:36;;;;;;;1.88;1.30;;;589.10;1484.80;;;;;;5114752;28;20011;-80
2022/07/11 08:04:04;;;;;;;2.63;1.60;;;589.10;1484.80;;;;;;5085234;28;20085;-81
2022/07/11 08:06:31;;;;;;;5.45;1.45;;;589.30;1484.80;;;;;;5112914;28;20019;-80
2022/07/11 08:08:57;;;;;;;3.80;1.30;;;589.30;1484.80;;;;;;5086192;28;20123;-79
2022/07/11 08:11:23;;;;;;;6.10;1.40;;;589.40;1484.80;;;;;;5077453;28;20089;-79
2022/07/11 08:13:49;;;;;;;4.35;1.75;;;588.90;1484.80;;;;;;5096090;28;20024;-79
2022/07/11 08:16:15;;;;;;;6.05;1.45;;;589.10;1459.20;;;;;;5114980;28;20031;-80
2022/07/11 08:18:40;;;;;;;3.63;1.35;;;589.20;1484.80;;;;;;5102521;27;20023;-79
2022/07/11 08:21:06;;;;;;;3.90;1.40;;;589.30;1459.20;;;;;;5104674;28;20023;-80
2022/07/11 08:23:32;;;;;;;2.63;1.13;;;589.30;1459.20;;;;;;5114722;28;20028;-82
2022/07/11 08:25:58;;;;;;;6.75;1.60;;;589.10;1459.20;;;;;;5085958;28;20097;-82
2022/07/11 08:28:24;;;;;;;8.65;1.80;;;589.10;1459.20;;;;;;5107698;28;20105;-81
2022/07/11 08:30:49;;;;;;;2.65;1.40;;;589.10;1459.20;;;;;;5088363;28;20024;-80
2022/07/11 08:33:15;;;;;;;4.57;1.30;;;589.30;1459.20;;;;;;5090842;28;20046;-79
2022/07/11 08:35:41;;;;;;;5.57;1.65;;;589.30;1433.60;;;;;;5114429;28;20016;-80
2022/07/11 08:38:07;;;;;;;4.75;1.98;;;589.50;1433.60;;;;;;5113387;28;20118;-80
2022/07/11 08:40:33;;;;;;;2.40;1.25;;;589.50;1433.60;;;;;;5114037;28;20011;-82
2022/07/11 08:42:59;;;;;;;4.80;1.40;;;589.20;1433.60;;;;;;5115176;28;20022;-79
2022/07/11 08:45:29;;;;;;;2.78;1.35;;;589.40;1459.20;;;;;;5114729;28;20024;-82
2022/07/11 08:47:57;;;;;;;5.00;1.77;;;589.50;1433.60;;;;;;5082997;28;20072;-81
2022/07/11 08:50:25;;;;;;;6.28;1.40;;;589.30;1433.60;;;;;;5114345;28;20465;-79
2022/07/11 08:52:51;;;;;;;3.67;1.50;;;589.70;1433.60;;;;;;5091139;28;20035;-81
2022/07/11 08:55:17;;;;;;;4.10;1.52;;;589.60;1433.60;;;;;;5086766;28;20059;-81
2022/07/11 08:57:43;;;;;;;6.68;1.35;;;589.70;1408.00;;;;;;5095279;28;20023;-80
2022/07/11 09:00:09;;;;;;;4.90;1.23;;;614.50;1408.00;;;;;;5113029;28;20027;-79
2022/07/11 09:02:36;;;;;;;4.00;1.25;;;614.40;1382.40;;;;;;5095793;28;20023;-79
2022/07/11 09:05:05;;;;;;;5.80;1.52;;;589.70;1356.80;;;;;;5081731;28;20043;-80
2022/07/11 09:07:32;;;;;;;2.90;1.23;;;589.60;1382.40;;;;;;5095637;28;20030;-79
2022/07/11 09:09:57;;;;;;;4.30;1.38;;;589.50;1382.40;;;;;;5078124;28;20022;-80
2022/07/11 09:12:23;;;;;;;3.90;1.30;;;589.50;1382.40;;;;;;5085321;28;20044;-79
2022/07/11 09:14:53;;;;;;;41.88;5.70;;;589.50;1382.40;;;;;;5080961;28;20378;-80
2022/07/11 09:17:30;;;;;;;4.32;1.67;;;589.60;1356.80;;;;;;5095834;28;20027;-80
2022/07/11 09:19:56;;;;;;;3.97;1.25;;;589.70;1356.80;;;;;;5095095;28;20031;-80
2022/07/11 09:27:56;;;;;;;2.47;1.00;;;614.80;1305.60;;;;;;5111088;28;20027;-82
2022/07/11 09:30:24;;;;;;;2.38;1.20;;;614.90;1305.60;;;;;;5095749;28;20016;-81
2022/07/11 09:32:55;;;;;;;7.45;1.60;;;615.10;1305.60;;;;;;5094966;28;20122;-80
2022/07/11 09:35:26;;;;;;;5.03;1.48;;;615.30;1280.00;;;;;;5095072;28;20027;-79
2022/07/11 09:37:52;;;;;;;2.95;1.27;;;640.00;1228.80;;;;;;5081644;28;20054;-81
2022/07/11 09:40:20;;;;;;;4.07;1.13;;;615.30;1254.40;;;;;;5101861;27;20019;-80
2022/07/11 09:42:56;;;;;;;2.75;1.60;;;615.10;1228.80;;;;;;5119929;27;20020;-82
2022/07/11 09:45:28;;;;;;;4.20;1.80;;;614.90;1254.40;;;;;;5106088;28;20027;-82
2022/07/11 09:47:55;;;;;;;5.38;1.50;;;614.80;1305.60;;;;;;5088910;28;20035;-80
2022/07/11 09:50:23;;;;;;;5.60;1.50;;;615.30;1280.00;;;;;;5095463;28;20046;-82
2022/07/11 09:53:05;;;;;;;5.28;1.38;;;615.20;1254.40;;;;;;5113581;28;20488;-82
2022/07/11 09:55:32;;;;;;;4.85;1.50;;;640.10;1254.40;;;;;;5099198;28;20523;-81
2022/07/11 09:57:58;;;;;;;4.43;1.25;;;640.40;1228.80;;;;;;5091506;28;20012;-80
2022/07/11 10:00:24;;;;;;;2.40;1.40;;;640.70;1203.20;;;;;;5084590;28;20027;-81
2022/07/11 10:02:52;;;;;;;6.78;1.27;;;640.80;1177.60;;;;;;5094273;28;20035;-81
2022/07/11 10:05:18;;;;;;;6.53;1.45;;;665.60;1203.20;;;;;;5094945;28;20027;-82
2022/07/11 10:07:44;;;;;;;6.47;1.38;;;665.70;1203.20;;;;;;5112015;28;20028;-82
2022/07/11 10:10:10;;;;;;;4.00;1.50;;;665.80;1177.60;;;;;;5111797;28;20027;-82
2022/07/11 10:12:36;;;;;;;2.38;1.48;;;665.70;1152.00;;;;;;5103159;28;20028;-82
2022/07/11 10:15:10;;;;;;;5.18;1.20;;;666.10;1152.00;;;;;;5108922;28;20022;-80
2022/07/11 10:17:57;;;;;;;7.03;1.40;;;666.20;1152.00;;;;;;5095381;28;20121;-82
2022/07/11 10:21:00;;;;;;;4.25;1.58;;;666.50;1126.40;;;;;;5095070;28;20020;-83
2022/07/11 10:23:44;;;;;;;6.82;1.52;;;691.20;1100.80;;;;;;5094971;28;20031;-81
2022/07/11 10:26:40;;;;;;;2.80;1.55;;;691.30;1126.40;;;;;;5094456;28;20039;-81
2022/07/11 10:29:13;;;;;;;2.97;1.40;;;691.60;1100.80;;;;;;5094552;28;20020;-79
2022/07/11 10:31:39;;;;;;;5.20;1.77;;;691.60;1075.20;;;;;;5094526;28;20027;-79
2022/07/11 10:34:07;;;;;;;3.88;1.58;;;665.90;1126.40;;;;;;5094268;28;20478;-79
2022/07/11 10:36:41;;;;;;;4.75;1.38;;;666.30;1075.20;;;;;;5112846;28;20115;-79
2022/07/11 10:39:24;;;;;;;1.67;0.98;;;691.30;1049.60;;;;;;5112770;28;20489;-79
2022/07/11 10:41:50;;;;;;;3.42;1.30;;;691.40;1049.60;;;;;;5098117;28;20462;-79
2022/07/11 10:44:16;;;;;;;2.10;1.13;;;691.70;1049.60;;;;;;5087174;28;20482;-80
2022/07/11 10:46:42;;;;;;;6.95;1.83;;;691.40;1049.60;;;;;;5073307;28;20490;-80
2022/07/11 10:49:15;;;;;;;1.95;1.13;;;691.50;1049.60;;;;;;5092661;28;20054;-79
2022/07/11 10:51:50;;;;;;;3.67;1.70;;;691.20;1049.60;;;;;;5113936;28;20080;-79
2022/07/11 10:54:44;;;;;;;3.35;1.30;;;666.30;1100.80;;;;;;5078398;28;20036;-80
2022/07/11 10:57:34;;;;;;;3.15;1.15;;;665.90;1100.80;;;;;;5110888;28;20049;-80
2022/07/11 11:00:11;;;;;;;2.78;1.33;;;640.70;1075.20;;;;;;5080994;28;20110;-80
2022/07/11 11:03:10;;;;;;;4.65;1.75;;;640.70;1100.80;;;;;;5090598;28;20504;-80
2022/07/11 11:05:49;;;;;;;3.70;1.60;;;640.90;1100.80;;;;;;5106582;28;20066;-81
2022/07/11 11:08:34;;;;;;;2.72;1.52;;;666.10;1100.80;;;;;;5116010;28;20031;-80
2022/07/11 11:11:03;;;;;;;4.68;2.08;;;665.70;1126.40;;;;;;5116331;28;20474;-80
2022/07/11 11:13:30;;;;;;;5.80;1.13;;;665.80;1100.80;;;;;;5083259;28;20055;-80
2022/07/11 11:15:58;;;;;;;2.90;1.55;;;666.20;1100.80;;;;;;5086122;28;20024;-80
2022/07/11 11:18:26;;;;;;;5.45;1.58;;;666.10;1100.80;;;;;;5093363;28;20095;-80
2022/07/11 11:20:57;;;;;;;6.28;1.63;;;666.20;1100.80;;;;;;5126069;27;20026;-80
2022/07/11 11:23:24;;;;;;;7.72;2.03;;;691.20;1075.20;;;;;;5100628;28;20106;-79
2022/07/11 11:25:50;;;;;;;3.08;1.60;;;691.30;1049.60;;;;;;5097410;28;20059;-80
2022/07/11 11:28:21;;;;;;;3.08;1.40;;;691.70;1024.00;;;;;;5115215;28;20078;-82
2022/07/11 11:30:54;;;;;;;5.75;1.33;;;691.40;1024.00;;;;;;5097456;28;20020;-80
2022/07/11 11:33:20;;;;;;;4.72;1.38;;;666.50;1049.60;;;;;;5097260;28;20067;-79
2022/07/11 11:36:01;;;;;;;7.45;1.60;;;666.10;1075.20;;;;;;5090595;28;20055;-79
2022/07/11 11:38:28;;;;;;;4.28;1.70;;;665.70;1100.80;;;;;;5109794;28;20047;-81
2022/07/11 11:40:54;;;;;;;4.07;1.85;;;640.90;1100.80;;;;;;5096899;28;20393;-80
2022/07/11 11:43:21;;;;;;;5.07;1.40;;;640.60;1100.80;;;;;;5096759;28;20090;-80
2022/07/11 11:45:51;;;;;;;5.00;1.42;;;640.40;1100.80;;;;;;5096867;28;20112;-80
2022/07/11 11:48:30;;;;;;;5.95;1.55;;;640.50;1100.80;;;;;;5096540;28;20396;-79
2022/07/11 11:51:14;;;;;;;4.93;1.60;;;640.40;1100.80;;;;;;5082670;28;20020;-79
2022/07/11 11:53:45;;;;;;;3.50;1.38;;;640.40;1100.80;;;;;;5085046;28;20040;-79
2022/07/11 11:56:32;;;;;;;5.32;1.33;;;640.90;1075.20;;;;;;5114041;28;20047;-79
2022/07/11 11:59:07;;;;;;;6.60;1.23;;;666.20;1049.60;;;;;;5094473;28;20063;-79
2022/07/11 12:01:34;;;;;;;2.27;1.23;;;665.90;1049.60;;;;;;5093788;28;20085;-80
2022/07/11 12:04:05;;;;;;;5.32;1.38;;;665.80;1075.20;;;;;;5113609;28;20023;-79
2022/07/11 12:06:36;;;;;;;3.63;1.73;;;640.80;1049.60;;;;;;5093272;28;20023;-80
2022/07/11 12:09:46;;;;;;;3.22;1.25;;;640.50;1075.20;;;;;;5096375;28;20018;-80
2022/07/11 12:14:56;;;;;;;4.43;1.30;;;640.90;1075.20;;;;;;5112484;28;20050;-79
2022/07/11 12:17:29;;;;;;;6.53;1.67;;;640.90;1075.20;;;;;;5095778;28;20055;-79
2022/07/11 12:19:55;;;;;;;3.25;0.90;;;666.50;1075.20;;;;;;5093413;28;20027;-80
2022/07/11 12:22:21;;;;;;;4.90;1.20;;;691.30;1049.60;;;;;;5095305;28;20031;-79
2022/07/11 12:24:52;;;;;;;10.82;1.63;;;691.50;1024.00;;;;;;5095714;28;20024;-79
2022/07/11 12:27:25;;;;;;;3.85;1.30;;;691.20;998.40;;;;;;5095636;28;20020;-79
2022/07/11 12:29:52;;;;;;;2.88;1.33;;;666.30;998.40;;;;;;5094230;28;20027;-79
2022/07/11 12:32:19;;;;;;;3.75;1.33;;;666.30;1024.00;;;;;;5095381;28;20747;-79